Time;durP1;ratioP1;P1;durP2;ratioP2;P2;SDS_P1;SDS_P2;PMS_P1;PMS_P2;Temp;Humidity;BMP_temperature;BMP_pressure;BME280_temperature;BME280_humidity;BME280_pressure;Samples;Min_cycle;Max_cycle;Signal;HPM_P1;HPM_P2
2022/07/31 00:00:48;;;;;;;5.97;5.23;;;;;;;25.12;53.70;100772.09;5031229;28;20409;-62
2022/07/31 00:03:13;;;;;;;6.67;5.23;;;;;;;25.15;53.28;100781.56;5036804;28;20432;-63
2022/07/31 00:05:39;;;;;;;6.10;5.50;;;;;;;25.08;53.22;100792.66;5037857;28;20397;-62
2022/07/31 00:08:05;;;;;;;5.83;5.07;;;;;;;25.09;53.41;100798.94;5026052;28;20405;-63
2022/07/31 00:10:31;;;;;;;7.95;4.90;;;;;;;25.07;53.23;100804.59;5032079;28;20403;-62
2022/07/31 00:12:57;;;;;;;5.88;4.78;;;;;;;25.09;53.01;100810.59;5033115;28;20459;-63
2022/07/31 00:15:23;;;;;;;6.20;4.90;;;;;;;25.05;53.05;100806.78;5039249;28;20476;-63
2022/07/31 00:17:49;;;;;;;6.57;4.78;;;;;;;25.02;53.01;100818.16;5033769;28;20427;-63
2022/07/31 00:20:44;;;;;;;5.90;4.80;;;;;;;24.98;53.01;100826.00;5085395;27;20399;-63
2022/07/31 00:23:10;;;;;;;6.27;5.07;;;;;;;24.99;53.10;100829.50;5085879;28;20429;-63
2022/07/31 00:25:35;;;;;;;5.47;4.75;;;;;;;24.93;53.38;100825.97;5079732;28;20902;-63
2022/07/31 00:28:02;;;;;;;5.32;4.82;;;;;;;24.92;53.20;100834.34;5066827;28;20431;-63
2022/07/31 00:30:27;;;;;;;7.68;5.00;;;;;;;24.88;53.21;100839.50;5068552;28;20384;-63
2022/07/31 00:32:53;;;;;;;7.40;5.10;;;;;;;24.79;53.22;100844.63;5074174;28;20405;-63
2022/07/31 00:35:18;;;;;;;4.90;4.40;;;;;;;24.72;53.48;100843.19;5075187;28;20403;-62
2022/07/31 00:37:44;;;;;;;5.20;4.70;;;;;;;24.68;53.63;100847.50;5086292;28;20417;-63
2022/07/31 00:40:12;;;;;;;6.28;4.90;;;;;;;24.60;53.75;100841.50;5085822;28;20491;-62
2022/07/31 00:42:37;;;;;;;6.97;5.10;;;;;;;24.64;53.77;100847.22;5085985;28;20386;-62
2022/07/31 00:45:03;;;;;;;5.20;4.70;;;;;;;24.66;53.55;100845.06;5082232;28;20410;-63
2022/07/31 00:47:29;;;;;;;5.40;4.90;;;;;;;24.60;53.87;100849.63;5079099;28;20382;-63
2022/07/31 00:49:54;;;;;;;5.22;4.70;;;;;;;24.60;53.68;100852.34;5083525;28;20385;-63
2022/07/31 00:52:20;;;;;;;6.03;5.10;;;;;;;24.59;53.76;100847.19;5085713;28;20904;-63
2022/07/31 00:54:45;;;;;;;5.07;4.68;;;;;;;24.55;53.79;100851.50;5084454;28;20799;-63
2022/07/31 00:57:11;;;;;;;6.60;4.95;;;;;;;24.53;53.78;100840.91;5076866;28;20898;-62
2022/07/31 00:59:36;;;;;;;5.80;5.20;;;;;;;24.55;53.74;100843.34;5084083;28;20422;-62
2022/07/31 01:02:02;;;;;;;5.43;4.80;;;;;;;24.54;53.73;100842.56;5085101;28;20394;-63
2022/07/31 01:04:28;;;;;;;5.38;4.88;;;;;;;24.54;53.77;100847.13;5084398;28;20450;-62
2022/07/31 01:07:05;;;;;;;6.25;5.05;;;;;;;24.50;53.64;100848.72;5079591;27;20822;-63
2022/07/31 01:11:05;;;;;;;5.80;5.20;;;;;;;24.47;53.46;100860.06;5096589;27;20398;-62
2022/07/31 01:14:00;;;;;;;6.18;5.40;;;;;;;24.48;53.62;100865.22;5084991;28;20398;-63
2022/07/31 01:16:29;;;;;;;5.40;4.90;;;;;;;24.51;53.76;100859.28;5079622;28;20895;-63
2022/07/31 01:18:56;;;;;;;6.05;5.40;;;;;;;24.56;53.50;100853.94;5084419;28;20437;-62
2022/07/31 01:21:36;;;;;;;5.60;4.90;;;;;;;24.53;53.62;100856.34;5078065;28;20399;-63
2022/07/31 01:24:19;;;;;;;6.37;5.33;;;;;;;24.50;53.74;100851.41;5080686;28;20956;-63
2022/07/31 01:26:51;;;;;;;5.32;4.82;;;;;;;24.50;53.67;100857.66;5074136;28;20482;-63
2022/07/31 01:29:36;;;;;;;6.10;5.00;;;;;;;24.50;53.71;100854.13;5085094;28;20467;-62
2022/07/31 01:32:12;;;;;;;7.05;5.28;;;;;;;24.54;53.55;100860.69;5073719;28;20400;-63
2022/07/31 01:34:48;;;;;;;6.13;5.37;;;;;;;24.55;53.61;100848.78;5068040;28;20392;-63
2022/07/31 01:37:22;;;;;;;5.82;5.22;;;;;;;24.56;53.57;100840.41;5076135;28;20448;-63
2022/07/31 01:39:56;;;;;;;8.67;5.40;;;;;;;24.55;53.65;100841.47;5085831;28;20391;-63
2022/07/31 01:42:25;;;;;;;6.00;5.43;;;;;;;24.58;53.40;100840.94;5085506;28;20505;-63
2022/07/31 01:44:55;;;;;;;6.13;5.53;;;;;;;24.55;53.42;100836.03;5082440;28;21474;-62
2022/07/31 01:47:22;;;;;;;5.85;5.35;;;;;;;24.57;53.40;100843.91;5086223;28;20464;-63
2022/07/31 01:49:49;;;;;;;7.17;5.60;;;;;;;24.58;53.35;100840.13;5084330;28;20426;-62
2022/07/31 01:52:15;;;;;;;6.70;5.40;;;;;;;24.55;53.34;100838.75;5082589;28;20888;-62
2022/07/31 01:54:43;;;;;;;6.63;5.55;;;;;;;24.57;53.23;100839.28;5071532;28;20418;-61
2022/07/31 01:57:09;;;;;;;7.78;5.28;;;;;;;24.55;53.19;100835.22;5077910;28;20384;-62
2022/07/31 01:59:38;;;;;;;8.48;5.50;;;;;;;24.54;53.35;100831.72;5078524;28;20398;-61
2022/07/31 02:02:03;;;;;;;6.80;5.22;;;;;;;24.54;53.28;100837.13;5083092;28;21714;-64
2022/07/31 02:06:39;;;;;;;5.60;5.20;;;;;;;24.55;53.18;100830.63;5087262;27;2063256;-63
2022/07/31 02:09:05;;;;;;;6.10;5.50;;;;;;;24.51;53.61;100834.09;5127726;28;20428;-62
2022/07/31 02:11:31;;;;;;;6.15;5.57;;;;;;;24.54;53.72;100845.25;5113929;28;20389;-63
2022/07/31 02:13:59;;;;;;;6.28;5.68;;;;;;;24.53;53.44;100834.69;5111644;28;20384;-63
2022/07/31 02:16:26;;;;;;;6.53;6.03;;;;;;;24.53;53.40;100843.63;5126757;28;20390;-63
2022/07/31 02:18:54;;;;;;;6.40;5.80;;;;;;;24.49;53.15;100837.06;5124058;28;20876;-63
2022/07/31 02:21:19;;;;;;;7.07;6.38;;;;;;;24.50;53.34;100835.97;5127421;28;20825;-62
2022/07/31 02:23:45;;;;;;;7.77;6.43;;;;;;;24.50;53.14;100838.69;5127171;28;20923;-63
2022/07/31 02:26:14;;;;;;;7.20;6.32;;;;;;;24.51;53.15;100836.81;5113048;28;20936;-63
2022/07/31 02:28:42;;;;;;;7.90;6.47;;;;;;;24.51;53.06;100828.69;5111488;28;20386;-63
2022/07/31 02:31:11;;;;;;;6.90;6.30;;;;;;;24.49;53.23;100828.94;5127239;28;20395;-63
2022/07/31 02:33:39;;;;;;;7.50;6.80;;;;;;;24.50;53.39;100832.44;5126675;28;20765;-63
2022/07/31 02:36:06;;;;;;;8.73;6.80;;;;;;;24.49;53.39;100826.22;5115821;28;20399;-63
2022/07/31 02:38:34;;;;;;;7.65;6.95;;;;;;;24.47;53.29;100830.25;5126248;28;20444;-63
2022/07/31 02:41:03;;;;;;;8.45;6.78;;;;;;;24.51;53.43;100826.78;5124475;28;20390;-63
2022/07/31 02:43:31;;;;;;;7.75;6.88;;;;;;;24.55;53.19;100822.47;5124548;28;20391;-63
2022/07/31 02:45:58;;;;;;;7.53;6.80;;;;;;;24.54;53.35;100825.44;5113091;28;20412;-63
2022/07/31 02:50:45;;;;;;;8.35;6.90;;;;;;;24.51;53.52;100824.06;5099018;27;20410;-63
2022/07/31 02:53:11;;;;;;;7.60;6.90;;;;;;;24.51;53.37;100823.25;5083319;28;20479;-64
2022/07/31 02:55:37;;;;;;;8.00;7.20;;;;;;;24.51;53.42;100832.19;5077154;28;20893;-63
2022/07/31 02:58:03;;;;;;;10.05;7.32;;;;;;;24.50;53.42;100837.88;5076386;28;20474;-62
2022/07/31 03:00:29;;;;;;;7.87;7.10;;;;;;;24.50;53.64;100835.97;5071667;28;20481;-63
2022/07/31 03:02:55;;;;;;;8.02;7.22;;;;;;;24.51;53.62;100842.22;5073190;28;20394;-63
2022/07/31 03:05:21;;;;;;;8.13;7.32;;;;;;;24.48;53.75;100837.31;5083038;28;20401;-63
2022/07/31 03:07:47;;;;;;;8.43;7.70;;;;;;;24.45;53.71;100837.81;5075524;28;20388;-63
2022/07/31 03:10:13;;;;;;;8.60;7.80;;;;;;;24.50;53.84;100843.28;5082883;28;20987;-62
2022/07/31 03:12:40;;;;;;;8.25;7.45;;;;;;;24.48;53.81;100842.72;5067222;28;20396;-63
2022/07/31 03:15:11;;;;;;;8.97;8.20;;;;;;;24.45;53.70;100854.88;5084087;28;20395;-63
2022/07/31 03:17:39;;;;;;;9.32;8.40;;;;;;;24.43;53.80;100851.63;5081425;28;20428;-62
2022/07/31 03:20:06;;;;;;;9.27;8.45;;;;;;;24.41;54.00;100854.59;5077787;28;20475;-63
2022/07/31 03:22:32;;;;;;;9.30;8.43;;;;;;;24.43;53.69;100854.34;5073066;28;20487;-63
2022/07/31 03:25:00;;;;;;;10.23;8.88;;;;;;;24.44;53.99;100850.56;5072531;28;20430;-63
2022/07/31 03:27:26;;;;;;;9.50;8.50;;;;;;;24.45;54.14;100851.38;5083351;28;20425;-63
2022/07/31 03:29:53;;;;;;;9.90;9.00;;;;;;;24.46;53.98;100847.59;5085910;28;20437;-63
2022/07/31 03:32:19;;;;;;;12.43;9.68;;;;;;;24.47;54.00;100858.19;5075171;28;20438;-63
2022/07/31 03:34:45;;;;;;;10.45;9.55;;;;;;;24.46;54.10;100866.56;5085564;28;20382;-62
2022/07/31 03:37:11;;;;;;;11.32;9.52;;;;;;;24.48;54.02;100864.41;5084269;28;20776;-63
2022/07/31 03:39:36;;;;;;;10.43;9.52;;;;;;;24.46;53.97;100867.38;5076530;28;20993;-63
2022/07/31 03:42:02;;;;;;;10.90;9.80;;;;;;;24.50;53.86;100862.25;5078707;28;20406;-63
2022/07/31 03:44:31;;;;;;;10.77;9.82;;;;;;;24.51;53.82;100866.63;5073020;28;20503;-62
2022/07/31 03:46:58;;;;;;;10.85;9.82;;;;;;;24.51;53.64;100855.78;5071718;28;20405;-62
2022/07/31 03:49:24;;;;;;;10.65;9.65;;;;;;;24.56;53.57;100861.25;5083148;28;20416;-62
2022/07/31 03:51:49;;;;;;;10.82;9.77;;;;;;;24.60;53.50;100854.25;5085064;28;20443;-62
2022/07/31 03:54:15;;;;;;;10.77;9.77;;;;;;;24.67;53.18;100862.97;5085152;28;20382;-62
2022/07/31 03:56:45;;;;;;;10.55;9.65;;;;;;;24.66;53.33;100849.66;5071580;28;20749;-62
2022/07/31 03:59:12;;;;;;;10.23;9.33;;;;;;;24.72;53.21;100851.31;5073367;28;20788;-62
2022/07/31 04:01:38;;;;;;;10.88;9.70;;;;;;;24.79;53.07;100855.47;5062724;28;20955;-63
2022/07/31 04:04:03;;;;;;;10.27;9.25;;;;;;;25.01;52.57;100851.75;5065540;28;20394;-63
2022/07/31 04:06:29;;;;;;;11.13;10.20;;;;;;;24.99;52.49;100845.78;5063912;28;20400;-62
2022/07/31 04:08:55;;;;;;;11.43;10.10;;;;;;;25.01;52.61;100838.19;5069926;28;20465;-63
2022/07/31 04:11:20;;;;;;;10.85;9.63;;;;;;;25.02;52.51;100849.88;5060312;28;20773;-62
2022/07/31 04:13:45;;;;;;;11.30;10.10;;;;;;;25.09;52.36;100842.31;5071709;28;20425;-63
2022/07/31 04:16:11;;;;;;;10.03;9.23;;;;;;;25.13;52.32;100844.22;5069166;28;20792;-62
2022/07/31 04:18:37;;;;;;;10.52;9.48;;;;;;;25.14;52.17;100834.22;5070865;28;20399;-62
2022/07/31 04:21:02;;;;;;;10.83;9.90;;;;;;;25.23;52.02;100840.75;5071613;28;20394;-63
2022/07/31 04:23:27;;;;;;;11.23;9.23;;;;;;;25.26;52.00;100840.25;5071242;28;20914;-62
2022/07/31 04:25:53;;;;;;;10.97;10.07;;;;;;;25.42;51.64;100843.03;5070266;28;20386;-62
2022/07/31 04:28:18;;;;;;;10.95;9.98;;;;;;;25.86;50.61;100829.84;5067738;28;20895;-62
2022/07/31 04:30:44;;;;;;;11.25;10.25;;;;;;;26.15;50.00;100823.91;5061929;28;20406;-62
2022/07/31 04:33:09;;;;;;;10.97;9.87;;;;;;;25.98;50.16;100826.88;5054295;28;20394;-62
2022/07/31 04:35:35;;;;;;;11.20;10.10;;;;;;;25.83;50.87;100835.78;5062386;28;20406;-63
2022/07/31 04:38:01;;;;;;;10.73;9.60;;;;;;;25.75;51.14;100831.72;5064468;28;20428;-63
2022/07/31 04:40:26;;;;;;;11.25;10.25;;;;;;;25.76;51.12;100836.03;5064099;28;20391;-62
2022/07/31 04:45:03;;;;;;;11.48;10.18;;;;;;;25.67;51.21;100834.94;5152476;27;20939;-63
2022/07/31 04:47:29;;;;;;;11.53;10.40;;;;;;;25.65;51.46;100831.69;5127128;27;20403;-63
2022/07/31 04:49:54;;;;;;;11.65;10.55;;;;;;;25.64;51.38;100830.06;5118667;27;20827;-63
2022/07/31 04:52:19;;;;;;;11.73;10.60;;;;;;;25.61;51.61;100832.50;5123295;27;20387;-64
2022/07/31 04:54:45;;;;;;;11.83;10.63;;;;;;;25.56;51.77;100834.09;5124115;27;20892;-62
2022/07/31 04:57:10;;;;;;;11.97;10.77;;;;;;;25.47;51.84;100824.84;5121946;27;20444;-62
2022/07/31 04:59:36;;;;;;;12.27;11.07;;;;;;;25.46;52.01;100828.66;5096909;28;20885;-62
2022/07/31 05:02:02;;;;;;;12.07;10.77;;;;;;;25.47;52.25;100833.00;5120898;27;20949;-62
2022/07/31 05:04:27;;;;;;;12.07;10.80;;;;;;;25.46;52.38;100841.41;5126394;27;20406;-62
2022/07/31 05:06:53;;;;;;;12.40;11.20;;;;;;;25.46;52.24;100844.94;5120119;27;20426;-62
2022/07/31 05:09:24;;;;;;;12.20;10.95;;;;;;;25.45;52.36;100853.34;5126842;27;20386;-62
2022/07/31 05:11:51;;;;;;;12.77;11.53;;;;;;;25.40;52.53;100847.91;5126820;27;20466;-62
2022/07/31 05:14:19;;;;;;;12.98;11.75;;;;;;;25.39;52.65;100857.97;5123419;27;20497;-63
2022/07/31 05:16:45;;;;;;;13.00;11.48;;;;;;;25.32;52.97;100850.06;5126201;27;20855;-63
2022/07/31 05:19:10;;;;;;;12.50;11.20;;;;;;;25.38;52.56;100854.41;5126112;27;20478;-62
2022/07/31 05:21:36;;;;;;;12.10;10.90;;;;;;;25.36;52.70;100858.47;5110238;27;20524;-62
2022/07/31 05:24:02;;;;;;;12.90;11.10;;;;;;;25.40;52.68;100862.28;5120192;27;20421;-62
2022/07/31 05:26:29;;;;;;;12.25;11.15;;;;;;;25.44;52.74;100854.44;5126413;27;20926;-63
2022/07/31 05:28:58;;;;;;;12.32;11.13;;;;;;;25.55;52.76;100848.78;5126519;27;20387;-63
2022/07/31 05:31:24;;;;;;;12.60;11.30;;;;;;;25.81;52.24;100846.13;5126717;27;20394;-63
2022/07/31 05:33:50;;;;;;;12.70;11.32;;;;;;;26.05;51.63;100857.31;5124933;27;20410;-64
2022/07/31 05:36:17;;;;;;;12.50;11.30;;;;;;;26.29;51.27;100852.16;5120745;27;20472;-63
2022/07/31 05:38:43;;;;;;;11.90;10.80;;;;;;;26.55;50.89;100849.44;5116079;27;20411;-63
2022/07/31 05:41:09;;;;;;;11.63;10.52;;;;;;;26.43;50.88;100855.13;5122285;27;20898;-62
2022/07/31 05:43:35;;;;;;;12.03;10.93;;;;;;;26.35;51.36;100855.69;5116159;27;20479;-62
2022/07/31 05:46:02;;;;;;;15.25;10.63;;;;;;;26.29;51.49;100860.31;5123414;27;20383;-62
2022/07/31 05:48:27;;;;;;;11.80;10.77;;;;;;;26.29;51.55;100854.88;5118655;27;20898;-63
2022/07/31 05:50:53;;;;;;;11.88;10.70;;;;;;;26.41;51.09;100861.94;5123448;27;20398;-62
2022/07/31 05:53:19;;;;;;;11.63;10.63;;;;;;;26.51;50.93;100861.94;5107147;27;20389;-63
2022/07/31 05:55:46;;;;;;;11.77;10.68;;;;;;;26.57;50.53;100862.75;5107839;28;20380;-63
2022/07/31 05:58:13;;;;;;;12.65;10.80;;;;;;;26.59;50.19;100860.56;5086373;28;20752;-62
2022/07/31 06:00:39;;;;;;;11.18;10.18;;;;;;;26.56;50.50;100864.66;5101714;28;20392;-64
2022/07/31 06:03:05;;;;;;;11.73;10.53;;;;;;;26.52;50.71;100861.69;5112587;28;20410;-62
2022/07/31 06:05:31;;;;;;;11.68;10.57;;;;;;;26.51;50.17;100864.66;5106288;28;20462;-62
2022/07/31 06:07:58;;;;;;;11.77;10.70;;;;;;;26.54;50.36;100869.53;5097859;28;20412;-63
2022/07/31 06:10:24;;;;;;;13.93;10.50;;;;;;;26.56;50.00;100869.25;5095591;28;20970;-63
2022/07/31 06:12:50;;;;;;;11.40;10.30;;;;;;;26.75;49.73;100875.81;5111186;28;20426;-62
2022/07/31 06:15:15;;;;;;;11.87;10.77;;;;;;;27.08;48.69;100884.41;5112190;28;20473;-62
2022/07/31 06:17:41;;;;;;;10.88;9.88;;;;;;;27.46;48.03;100868.56;5109271;28;20470;-62
2022/07/31 06:20:08;;;;;;;10.88;9.88;;;;;;;28.23;45.97;100868.06;5105810;28;20478;-62
2022/07/31 06:22:34;;;;;;;10.40;9.45;;;;;;;30.89;40.67;100857.47;5088415;28;20395;-62
2022/07/31 06:24:59;;;;;;;11.17;10.10;;;;;;;38.43;28.35;100841.22;5111514;28;20417;-63
2022/07/31 06:27:26;;;;;;;9.70;8.80;;;;;;;41.70;24.10;100834.66;5109610;28;20423;-63
2022/07/31 06:29:52;;;;;;;8.73;8.02;;;;;;;46.48;18.91;100819.38;5098175;28;20422;-62
2022/07/31 06:32:19;;;;;;;8.57;7.83;;;;;;;49.25;16.35;100818.00;5110168;28;20893;-63
2022/07/31 06:34:44;;;;;;;7.65;6.90;;;;;;;50.67;14.63;100808.56;5110086;28;20429;-62
2022/07/31 06:37:10;;;;;;;7.50;6.90;;;;;;;51.55;13.62;100816.91;5111831;28;20396;-63
2022/07/31 06:39:35;;;;;;;7.47;6.87;;;;;;;52.80;13.03;100808.22;5106939;28;20399;-64
2022/07/31 06:42:01;;;;;;;7.27;6.67;;;;;;;53.44;12.27;100804.97;5105493;28;20476;-63
2022/07/31 06:44:27;;;;;;;7.87;6.30;;;;;;;52.47;12.35;100808.59;5095166;28;20421;-63
2022/07/31 06:46:53;;;;;;;7.50;6.75;;;;;;;54.03;11.57;100791.59;5110457;28;22113;-64
2022/07/31 06:49:18;;;;;;;7.87;6.50;;;;;;;55.67;10.42;100793.00;5108301;28;20441;-64
2022/07/31 06:51:44;;;;;;;6.83;6.17;;;;;;;55.42;10.27;100780.00;5105098;28;20450;-64
2022/07/31 06:54:10;;;;;;;6.80;6.30;;;;;;;55.08;10.22;100778.41;5111399;28;20846;-63
2022/07/31 06:56:37;;;;;;;6.80;6.20;;;;;;;49.46;13.66;100782.97;5079749;28;20397;-62
2022/07/31 06:59:05;;;;;;;5.97;5.50;;;;;;;44.56;17.76;100801.13;5097292;28;20474;-63
2022/07/31 07:01:30;;;;;;;6.75;6.15;;;;;;;42.96;19.43;100806.72;5102425;28;20993;-63
2022/07/31 07:03:56;;;;;;;5.50;5.10;;;;;;;41.82;20.26;100807.34;5098949;28;20503;-62
2022/07/31 07:06:22;;;;;;;5.95;5.40;;;;;;;44.51;17.58;100800.72;5088111;28;20388;-63
2022/07/31 07:08:48;;;;;;;5.93;4.93;;;;;;;47.54;14.57;100792.47;5100482;28;20416;-62
2022/07/31 07:11:13;;;;;;;5.70;5.20;;;;;;;50.07;13.00;100784.31;5097494;28;20503;-62
2022/07/31 07:13:39;;;;;;;6.20;5.47;;;;;;;52.81;11.20;100782.25;5093857;28;20491;-63
2022/07/31 07:16:05;;;;;;;5.78;5.28;;;;;;;53.29;10.67;100780.03;5082387;28;20521;-65
2022/07/31 07:18:30;;;;;;;5.97;5.00;;;;;;;51.10;12.00;100784.75;5094134;28;20914;-63
2022/07/31 07:20:56;;;;;;;5.30;4.75;;;;;;;45.11;16.47;100788.63;5101432;28;20739;-63
2022/07/31 07:23:22;;;;;;;4.68;4.28;;;;;;;42.45;18.96;100798.38;5097068;28;20789;-64
2022/07/31 07:25:48;;;;;;;4.30;3.90;;;;;;;40.60;20.84;100800.16;5093415;28;20385;-63
2022/07/31 07:28:14;;;;;;;4.55;4.25;;;;;;;39.45;21.86;100798.03;5096642;28;20455;-64
2022/07/31 07:30:40;;;;;;;5.28;4.78;;;;;;;38.76;22.53;100801.28;5108163;28;20467;-63
2022/07/31 07:33:05;;;;;;;5.30;4.90;;;;;;;38.32;23.06;100795.03;5102575;28;20386;-62
2022/07/31 07:35:31;;;;;;;5.07;4.67;;;;;;;37.73;23.61;100802.97;5093596;28;20390;-61
2022/07/31 07:37:57;;;;;;;5.33;4.47;;;;;;;37.28;24.91;100809.56;5100414;28;20389;-62
2022/07/31 07:40:24;;;;;;;6.63;5.10;;;;;;;36.76;25.33;100802.03;5094274;28;20426;-61
2022/07/31 07:42:50;;;;;;;5.22;4.82;;;;;;;36.19;25.57;100807.22;5108559;28;20647;-62
2022/07/31 07:45:15;;;;;;;5.90;5.40;;;;;;;35.79;26.43;100803.06;5110000;28;20510;-62
2022/07/31 07:47:41;;;;;;;6.40;5.80;;;;;;;35.65;26.60;100799.75;5107867;28;20944;-62
2022/07/31 07:50:08;;;;;;;6.10;5.60;;;;;;;35.43;27.16;100809.19;5101763;28;20384;-62
2022/07/31 07:52:35;;;;;;;6.10;5.50;;;;;;;35.18;27.12;100805.47;5092820;28;20759;-61
2022/07/31 07:55:00;;;;;;;6.38;5.70;;;;;;;34.93;27.89;100804.50;5109212;28;20874;-61
2022/07/31 07:57:26;;;;;;;7.10;5.85;;;;;;;34.67;28.27;100795.19;5109343;28;20873;-62
2022/07/31 07:59:52;;;;;;;6.50;5.90;;;;;;;34.53;28.33;100796.56;5108834;28;20914;-61
2022/07/31 08:02:18;;;;;;;7.90;6.13;;;;;;;34.52;28.62;100809.53;5108992;28;20396;-62
2022/07/31 08:04:43;;;;;;;6.20;5.70;;;;;;;34.40;28.63;100801.16;5098902;28;20409;-61
2022/07/31 08:07:09;;;;;;;7.20;6.60;;;;;;;34.33;29.14;100800.88;5092955;28;20381;-61
2022/07/31 08:09:36;;;;;;;7.55;6.63;;;;;;;34.24;29.42;100809.94;5097701;28;20398;-61
2022/07/31 08:12:03;;;;;;;6.70;6.10;;;;;;;34.16;29.67;100804.44;5090652;28;20388;-62
2022/07/31 08:14:28;;;;;;;6.47;5.97;;;;;;;34.41;29.47;100803.59;5076910;28;20411;-61
2022/07/31 08:16:55;;;;;;;6.50;5.90;;;;;;;34.29;29.07;100797.97;5093501;28;20397;-61
2022/07/31 08:19:20;;;;;;;6.47;5.93;;;;;;;34.05;29.54;100818.56;5109322;28;20920;-61
2022/07/31 08:21:47;;;;;;;6.07;5.25;;;;;;;33.95;29.19;100816.13;5109645;28;20392;-61
2022/07/31 08:24:15;;;;;;;5.97;5.47;;;;;;;33.88;29.10;100824.88;5109812;28;20414;-61
2022/07/31 08:29:24;;;;;;;4.50;3.23;;;;;;;33.30;28.53;100829.69;5098089;28;20418;-62
2022/07/31 08:31:50;;;;;;;3.47;3.17;;;;;;;33.07;29.13;100820.72;5107165;28;20433;-62
2022/07/31 08:34:16;;;;;;;3.40;3.05;;;;;;;33.21;28.51;100823.38;5095803;28;20393;-61
2022/07/31 08:36:42;;;;;;;3.92;3.25;;;;;;;33.41;27.87;100826.66;5092312;28;20391;-61
2022/07/31 08:39:07;;;;;;;3.13;2.90;;;;;;;33.29;27.78;100822.56;5105130;28;20401;-61
2022/07/31 08:41:33;;;;;;;3.33;2.80;;;;;;;33.05;27.75;100822.19;5107272;28;20439;-61
2022/07/31 08:43:59;;;;;;;3.72;2.97;;;;;;;32.84;28.29;100822.75;5106638;28;20425;-62
2022/07/31 08:46:26;;;;;;;3.20;2.58;;;;;;;32.94;27.86;100824.44;5101498;28;20461;-61
2022/07/31 08:48:55;;;;;;;3.42;3.13;;;;;;;33.20;27.59;100823.69;5102221;28;20379;-61
2022/07/31 08:53:02;;;;;;;6.95;2.97;;;;;;;33.14;27.93;100812.84;5079610;27;20410;-63
2022/07/31 08:55:30;;;;;;;3.05;2.75;;;;;;;33.17;28.25;100803.19;5061330;28;20457;-62
2022/07/31 08:57:55;;;;;;;3.20;2.90;;;;;;;33.14;28.52;100804.63;5064719;28;20441;-62
2022/07/31 09:00:21;;;;;;;3.53;3.08;;;;;;;33.24;28.43;100811.75;5062139;28;20408;-62
2022/07/31 09:02:48;;;;;;;3.60;3.30;;;;;;;33.42;28.04;100801.59;5062093;28;20474;-64
2022/07/31 09:05:14;;;;;;;4.57;3.30;;;;;;;33.45;27.83;100803.69;5061785;28;20414;-61
2022/07/31 09:07:40;;;;;;;3.63;3.28;;;;;;;33.57;28.16;100800.28;5058998;28;20407;-62
2022/07/31 09:10:18;;;;;;;3.47;2.90;;;;;;;33.43;27.92;100805.94;5063037;28;20396;-63
2022/07/31 09:12:44;;;;;;;3.55;3.03;;;;;;;33.30;28.31;100804.16;5016046;28;20802;-62
2022/07/31 09:15:39;;;;;;;3.40;2.97;;;;;;;33.31;28.60;100794.78;5049109;28;20898;-62
2022/07/31 09:18:20;;;;;;;3.72;2.75;;;;;;;33.00;28.52;100795.69;5051901;28;20471;-62
2022/07/31 09:20:59;;;;;;;5.00;2.30;;;;;;;32.72;28.41;100806.13;5046002;28;20392;-62
2022/07/31 09:23:26;;;;;;;2.30;2.10;;;;;;;32.68;28.02;100794.13;5042368;28;20795;-62
2022/07/31 09:26:00;;;;;;;2.65;1.90;;;;;;;32.65;28.61;100803.81;5045925;28;20876;-62
2022/07/31 09:28:32;;;;;;;2.53;1.80;;;;;;;32.65;28.56;100792.84;5047889;28;20388;-63
2022/07/31 09:30:58;;;;;;;2.88;1.98;;;;;;;32.65;28.28;100798.34;5044629;28;20803;-62
2022/07/31 09:33:27;;;;;;;3.17;1.83;;;;;;;32.72;27.85;100790.44;5045275;28;20887;-62
2022/07/31 09:35:52;;;;;;;1.95;1.75;;;;;;;32.70;27.89;100797.38;5040170;28;20408;-61
2022/07/31 09:38:19;;;;;;;4.30;2.58;;;;;;;32.70;28.62;100794.63;5036302;28;20384;-62
2022/07/31 09:40:45;;;;;;;2.33;2.00;;;;;;;32.66;27.94;100785.41;5025114;28;20696;-63
2022/07/31 09:43:21;;;;;;;2.97;2.05;;;;;;;32.52;27.99;100786.31;5041300;28;20388;-62
2022/07/31 09:45:57;;;;;;;3.30;1.88;;;;;;;32.55;27.98;100788.41;5025039;28;20521;-62
2022/07/31 09:48:22;;;;;;;2.40;2.20;;;;;;;32.57;27.96;100783.44;5037010;28;20399;-62
2022/07/31 09:50:56;;;;;;;2.70;2.50;;;;;;;32.63;28.03;100780.53;5048887;28;20399;-62
2022/07/31 09:53:23;;;;;;;5.57;2.47;;;;;;;32.68;27.92;100780.41;5025529;28;20391;-62
2022/07/31 09:55:53;;;;;;;2.30;2.00;;;;;;;32.72;28.17;100778.66;5025356;28;20376;-62
2022/07/31 09:58:19;;;;;;;1.85;1.70;;;;;;;32.74;28.09;100785.44;5023311;28;20885;-62
2022/07/31 10:00:46;;;;;;;2.00;1.80;;;;;;;32.69;28.51;100776.56;5029590;28;20498;-62
2022/07/31 10:03:13;;;;;;;2.63;2.15;;;;;;;32.89;28.49;100780.63;5037953;28;20394;-62
2022/07/31 10:05:41;;;;;;;2.80;1.90;;;;;;;32.87;28.02;100786.44;5024304;28;20390;-62
2022/07/31 10:08:07;;;;;;;3.35;1.80;;;;;;;32.84;27.85;100772.53;5036860;28;20386;-62
2022/07/31 10:10:34;;;;;;;2.42;1.92;;;;;;;32.86;27.68;100775.78;5030957;28;20378;-61
2022/07/31 10:13:07;;;;;;;3.07;1.73;;;;;;;32.82;27.79;100775.59;5045593;28;20483;-62
2022/07/31 10:15:35;;;;;;;2.10;1.90;;;;;;;32.82;27.74;100778.34;5019264;28;20492;-61
2022/07/31 10:18:02;;;;;;;1.90;1.70;;;;;;;32.76;27.56;100769.47;5025047;28;20410;-62
2022/07/31 10:20:29;;;;;;;3.35;1.75;;;;;;;32.68;27.47;100766.69;5035924;28;20473;-61
2022/07/31 10:23:04;;;;;;;1.90;1.80;;;;;;;32.54;27.84;100762.09;5029046;28;20412;-62
2022/07/31 10:25:30;;;;;;;2.55;1.90;;;;;;;32.38;27.88;100763.66;5012200;28;20813;-62
2022/07/31 10:27:56;;;;;;;3.20;2.00;;;;;;;32.28;27.84;100761.97;5034687;28;20381;-61
2022/07/31 10:30:24;;;;;;;2.75;2.00;;;;;;;32.33;27.51;100767.34;5019778;28;20390;-62
2022/07/31 10:32:49;;;;;;;2.22;1.90;;;;;;;32.54;27.24;100772.28;5019058;28;20426;-62
2022/07/31 10:35:16;;;;;;;2.23;1.70;;;;;;;32.60;27.23;100753.75;5016851;28;20459;-62
2022/07/31 10:38:09;;;;;;;2.97;1.80;;;;;;;32.52;27.17;100763.53;5028218;28;20405;-62
2022/07/31 10:40:47;;;;;;;2.35;1.45;;;;;;;32.40;27.37;100766.88;5014836;28;20408;-61
2022/07/31 10:43:19;;;;;;;3.05;1.50;;;;;;;32.38;27.54;100767.19;5026693;28;20898;-62
2022/07/31 10:45:50;;;;;;;2.50;1.60;;;;;;;32.47;27.53;100750.78;5021691;28;20396;-62
2022/07/31 10:48:16;;;;;;;2.60;1.75;;;;;;;32.53;27.71;100762.41;5011596;28;20391;-61
2022/07/31 10:50:42;;;;;;;2.03;1.73;;;;;;;32.39;27.30;100763.34;5013148;28;20482;-61
2022/07/31 10:53:10;;;;;;;2.43;1.63;;;;;;;32.26;26.83;100747.78;5011917;28;20455;-61
2022/07/31 10:55:36;;;;;;;3.28;1.80;;;;;;;32.24;26.80;100743.75;5011334;28;20438;-62
2022/07/31 10:58:10;;;;;;;2.47;1.80;;;;;;;32.23;26.54;100742.13;5011574;28;20466;-62
2022/07/31 11:00:36;;;;;;;1.70;1.60;;;;;;;32.13;26.70;100746.75;5010904;28;20435;-62
2022/07/31 11:03:14;;;;;;;1.92;1.80;;;;;;;32.19;26.95;100742.72;5012132;28;20384;-62
2022/07/31 11:05:58;;;;;;;2.10;1.60;;;;;;;32.11;26.76;100734.50;5011600;28;20384;-61
2022/07/31 11:08:24;;;;;;;2.00;1.88;;;;;;;32.11;26.99;100739.97;5013887;28;20395;-62
2022/07/31 11:10:52;;;;;;;2.10;1.90;;;;;;;31.98;26.89;100727.91;5028730;28;20816;-61
2022/07/31 11:13:20;;;;;;;3.20;2.10;;;;;;;32.05;26.77;100738.47;5025625;28;20884;-61
2022/07/31 11:18:19;;;;;;;2.10;2.00;;;;;;;31.99;26.38;100718.59;5086567;27;20469;-62
2022/07/31 11:20:46;;;;;;;4.20;1.93;;;;;;;31.91;26.62;100731.13;5066462;28;20503;-61
2022/07/31 11:23:16;;;;;;;2.15;1.95;;;;;;;31.89;26.65;100735.28;5066070;28;20427;-61
2022/07/31 11:25:43;;;;;;;2.92;2.00;;;;;;;31.85;26.80;100715.91;5066098;28;20396;-61
2022/07/31 11:28:17;;;;;;;2.67;2.47;;;;;;;31.95;27.26;100720.34;5065020;28;20514;-62
2022/07/31 11:31:06;;;;;;;3.17;2.38;;;;;;;31.86;26.88;100716.75;5066301;28;20917;-62
2022/07/31 11:33:36;;;;;;;3.17;2.10;;;;;;;31.81;26.78;100714.94;5062805;28;20809;-61
2022/07/31 11:36:13;;;;;;;2.20;2.00;;;;;;;31.77;27.10;100708.47;5066010;28;20400;-61
2022/07/31 11:38:41;;;;;;;2.38;2.20;;;;;;;31.87;26.90;100705.44;5060622;28;20911;-61